Time,TemperatureF,DewpointF,PressureIn,WindDirection,WindDirectionDegrees,WindSpeedMPH,WindSpeedGustMPH,Humidity,HourlyPrecipIn,Conditions,Clouds,dailyrainin,SoftwareType,DateUTC
2013-03-09 00:00:00,32.5,23.0,30.45,SSE,155,0.0,1.0,68,0.00,,,0.00,weatherlink.com 1.10,2013-03-09 05:00:00,
2013-03-09 00:15:00,32.9,24.0,30.46,SSE,155,1.0,1.0,69,0.00,,,0.00,weatherlink.com 1.10,2013-03-09 05:15:00,
2013-03-09 00:30:00,32.7,24.0,30.46,SSE,155,1.0,2.0,71,0.00,,,0.00,weatherlink.com 1.10,2013-03-09 05:30:00,
2013-03-09 00:45:00,31.3,24.0,30.45,SSE,153,1.0,4.0,74,0.00,,,0.00,weatherlink.com 1.10,2013-03-09 05:45:00,
2013-03-09 01:00:00,30.7,23.0,30.45,SSE,153,0.0,2.0,73,0.00,,,0.00,weatherlink.com 1.10,2013-03-09 06:00:00,
2013-03-09 01:15:00,30.6,23.0,30.45,SSE,153,0.0,1.0,72,0.00,,,0.00,weatherlink.com 1.10,2013-03-09 06:15:00,
2013-03-09 01:30:00,30.6,23.0,30.45,SSE,153,0.0,0.0,73,0.00,,,0.00,weatherlink.com 1.10,2013-03-09 06:30:00,
2013-03-09 01:45:00,30.0,23.0,30.45,SSE,153,0.0,0.0,75,0.00,,,0.00,weatherlink.com 1.10,2013-03-09 06:45:00,
2013-03-09 02:00:00,29.9,23.0,30.45,SSE,153,0.0,1.0,75,0.00,,,0.00,weatherlink.com 1.10,2013-03-09 07:00:00,
2013-03-09 02:15:00,30.1,23.0,30.45,SSE,153,0.0,0.0,74,0.00,,,0.00,weatherlink.com 1.10,2013-03-09 07:15:00,
2013-03-09 02:30:00,29.8,23.0,30.45,SSE,153,0.0,0.0,76,0.00,,,0.00,weatherlink.com 1.10,2013-03-09 07:30:00,
2013-03-09 02:45:00,29.1,23.0,30.44,SSE,153,0.0,0.0,77,0.00,,,0.00,weatherlink.com 1.10,2013-03-09 07:45:00,
2013-03-09 03:00:00,28.5,22.0,30.43,SSE,153,0.0,0.0,78,0.00,,,0.00,weatherlink.com 1.10,2013-03-09 08:00:00,
2013-03-09 03:15:00,28.6,22.0,30.43,SSE,153,0.0,1.0,77,0.00,,,0.00,weatherlink.com 1.10,2013-03-09 08:15:00,
2013-03-09 03:30:00,28.6,23.0,30.42,SSE,153,0.0,1.0,79,0.00,,,0.00,weatherlink.com 1.10,2013-03-09 08:30:00,
2013-03-09 03:45:00,28.4,23.0,30.42,SSE,153,0.0,0.0,79,0.00,,,0.00,weatherlink.com 1.10,2013-03-09 08:45:00,
2013-03-09 04:00:00,28.0,22.0,30.42,SSE,153,0.0,1.0,79,0.00,,,0.00,weatherlink.com 1.10,2013-03-09 09:00:00,
2013-03-09 04:15:00,28.0,22.0,30.42,SSE,153,0.0,0.0,79,0.00,,,0.00,weatherlink.com 1.10,2013-03-09 09:15:00,
2013-03-09 04:30:00,28.0,23.0,30.42,SSE,153,0.0,0.0,80,0.00,,,0.00,weatherlink.com 1.10,2013-03-09 09:30:00,
2013-03-09 04:45:00,27.7,22.0,30.42,SSE,153,1.0,1.0,80,0.00,,,0.00,weatherlink.com 1.10,2013-03-09 09:45:00,
2013-03-09 05:00:00,27.8,22.0,30.42,SSE,153,0.0,0.0,78,0.00,,,0.00,weatherlink.com 1.10,2013-03-09 10:00:00,
2013-03-09 05:15:00,28.0,23.0,30.42,SSE,153,0.0,0.0,81,0.00,,,0.00,weatherlink.com 1.10,2013-03-09 10:15:00,
2013-03-09 05:30:00,27.4,22.0,30.43,SSE,153,0.0,0.0,81,0.00,,,0.00,weatherlink.com 1.10,2013-03-09 10:30:00,
2013-03-09 05:45:00,27.1,22.0,30.43,SSE,153,0.0,0.0,80,0.00,,,0.00,weatherlink.com 1.10,2013-03-09 10:45:00,
2013-03-09 06:00:00,27.2,22.0,30.43,SSE,153,0.0,2.0,80,0.00,,,0.00,weatherlink.com 1.10,2013-03-09 11:00:00,
2013-03-09 06:15:00,27.2,22.0,30.43,SSE,153,0.0,0.0,79,0.00,,,0.00,weatherlink.com 1.10,2013-03-09 11:15:00,
2013-03-09 06:30:00,27.3,22.0,30.43,SSE,153,0.0,0.0,80,0.00,,,0.00,weatherlink.com 1.10,2013-03-09 11:30:00,
2013-03-09 06:45:00,27.0,22.0,30.44,SSE,153,0.0,0.0,80,0.00,,,0.00,weatherlink.com 1.10,2013-03-09 11:45:00,
2013-03-09 07:00:00,27.0,22.0,30.45,SSE,153,0.0,0.0,80,0.00,,,0.00,weatherlink.com 1.10,2013-03-09 12:00:00,
2013-03-09 07:15:00,27.3,22.0,30.45,SSE,153,0.0,1.0,81,0.00,,,0.00,weatherlink.com 1.10,2013-03-09 12:15:00,
2013-03-09 07:30:00,28.0,23.0,30.45,SSE,153,2.0,2.0,80,0.00,,,0.00,weatherlink.com 1.10,2013-03-09 12:30:00,
2013-03-09 07:45:00,29.7,23.0,30.45,SSE,153,1.0,2.0,76,0.00,,,0.00,weatherlink.com 1.10,2013-03-09 12:45:00,
2013-03-09 08:00:00,31.6,24.0,30.46,SSE,153,0.0,0.0,74,0.00,,,0.00,weatherlink.com 1.10,2013-03-09 13:00:00,
2013-03-09 08:15:00,32.4,26.0,30.46,NW,318,0.0,0.0,77,0.00,,,0.00,weatherlink.com 1.10,2013-03-09 13:15:00,
2013-03-09 08:30:00,32.3,26.0,30.47,NW,318,0.0,0.0,76,0.00,,,0.00,weatherlink.com 1.10,2013-03-09 13:30:00,
2013-03-09 08:45:00,33.3,27.0,30.47,NW,318,0.0,0.0,76,0.00,,,0.00,weatherlink.com 1.10,2013-03-09 13:45:00,
2013-03-09 09:01:00,34.5,27.0,30.47,NW,318,0.0,0.0,74,0.00,,,0.00,weatherlink.com 1.10,2013-03-09 14:01:00,
2013-03-09 09:16:00,35.9,27.0,30.48,WNW,301,0.0,2.0,70,0.00,,,0.00,weatherlink.com 1.10,2013-03-09 14:16:00,
2013-03-09 09:31:00,37.4,28.0,30.47,WNW,301,0.0,0.0,68,0.00,,,0.00,weatherlink.com 1.10,2013-03-09 14:31:00,
2013-03-09 09:46:00,39.1,27.0,30.46,WNW,301,0.0,2.0,62,0.00,,,0.00,weatherlink.com 1.10,2013-03-09 14:46:00,
2013-03-09 10:01:00,41.0,27.0,30.46,WNW,296,0.0,2.0,58,0.00,,,0.00,weatherlink.com 1.10,2013-03-09 15:01:00,
2013-03-09 10:16:00,42.5,27.0,30.47,West,263,1.0,5.0,54,0.00,,,0.00,weatherlink.com 1.10,2013-03-09 15:16:00,
2013-03-09 10:31:00,43.5,25.0,30.46,West,262,1.0,3.0,49,0.00,,,0.00,weatherlink.com 1.10,2013-03-09 15:31:00,
2013-03-09 10:46:00,45.1,25.0,30.46,West,262,0.0,3.0,46,0.00,,,0.00,weatherlink.com 1.10,2013-03-09 15:46:00,
2013-03-09 11:01:00,46.5,25.0,30.46,West,269,0.0,3.0,44,0.00,,,0.00,weatherlink.com 1.10,2013-03-09 16:01:00,
2013-03-09 11:16:00,47.2,27.0,30.45,South,184,2.0,5.0,45,0.00,,,0.00,weatherlink.com 1.10,2013-03-09 16:16:00,
2013-03-09 11:31:00,48.5,26.0,30.45,West,268,0.0,3.0,42,0.00,,,0.00,weatherlink.com 1.10,2013-03-09 16:31:00,
2013-03-09 11:46:00,50.0,28.0,30.45,West,267,0.0,3.0,43,0.00,,,0.00,weatherlink.com 1.10,2013-03-09 16:46:00,
2013-03-09 12:01:00,51.0,28.0,30.44,South,170,3.0,3.0,42,0.00,,,0.00,weatherlink.com 1.10,2013-03-09 17:01:00,
2013-03-09 12:16:00,52.2,28.0,30.44,West,278,2.0,3.0,39,0.00,,,0.00,weatherlink.com 1.10,2013-03-09 17:16:00,
2013-03-09 12:31:00,52.9,28.0,30.43,West,269,0.0,2.0,39,0.00,,,0.00,weatherlink.com 1.10,2013-03-09 17:31:00,
2013-03-09 12:46:00,53.7,27.0,30.43,West,261,2.0,3.0,36,0.00,,,0.00,weatherlink.com 1.10,2013-03-09 17:46:00,
2013-03-09 13:02:00,54.5,28.0,30.42,West,281,2.0,3.0,37,0.00,,,0.00,weatherlink.com 1.10,2013-03-09 18:02:00,
2013-03-09 13:17:00,54.7,27.0,30.41,South,184,0.0,5.0,35,0.00,,,0.00,weatherlink.com 1.10,2013-03-09 18:17:00,
2013-03-09 13:32:00,55.6,28.0,30.40,West,260,0.0,7.0,35,0.00,,,0.00,weatherlink.com 1.10,2013-03-09 18:32:00,
2013-03-09 13:47:00,56.5,28.0,30.39,West,270,0.0,3.0,34,0.00,,,0.00,weatherlink.com 1.10,2013-03-09 18:47:00,
2013-03-09 14:02:00,57.3,28.0,30.38,SSW,211,0.0,4.0,33,0.00,,,0.00,weatherlink.com 1.10,2013-03-09 19:02:00,
2013-03-09 14:17:00,57.9,29.0,30.38,South,182,1.0,3.0,33,0.00,,,0.00,weatherlink.com 1.10,2013-03-09 19:17:00,
2013-03-09 14:32:00,58.2,29.0,30.37,SSE,161,1.0,4.0,33,0.00,,,0.00,weatherlink.com 1.10,2013-03-09 19:32:00,
2013-03-09 14:47:00,58.5,29.0,30.36,SSW,194,0.0,2.0,32,0.00,,,0.00,weatherlink.com 1.10,2013-03-09 19:47:00,
2013-03-09 15:02:00,58.5,29.0,30.36,NW,323,1.0,4.0,32,0.00,,,0.00,weatherlink.com 1.10,2013-03-09 20:02:00,
2013-03-09 15:17:00,58.4,29.0,30.36,ESE,102,2.0,3.0,33,0.00,,,0.00,weatherlink.com 1.10,2013-03-09 20:17:00,
2013-03-09 15:32:00,58.3,29.0,30.36,East,93,1.0,7.0,33,0.00,,,0.00,weatherlink.com 1.10,2013-03-09 20:32:00,
2013-03-09 15:47:00,58.1,29.0,30.36,East,96,2.0,5.0,33,0.00,,,0.00,weatherlink.com 1.10,2013-03-09 20:47:00,
2013-03-09 16:02:00,57.8,29.0,30.36,East,99,2.0,3.0,34,0.00,,,0.00,weatherlink.com 1.10,2013-03-09 21:02:00,
2013-03-09 16:17:00,57.6,29.0,30.36,East,96,3.0,3.0,33,0.00,,,0.00,weatherlink.com 1.10,2013-03-09 21:17:00,
2013-03-09 16:32:00,57.4,28.0,30.36,SE,131,1.0,3.0,33,0.00,,,0.00,weatherlink.com 1.10,2013-03-09 21:32:00,
2013-03-09 16:47:00,56.8,28.0,30.36,ESE,103,2.0,3.0,33,0.00,,,0.00,weatherlink.com 1.10,2013-03-09 21:47:00,
2013-03-09 17:02:00,56.4,28.0,30.36,ESE,109,0.0,2.0,34,0.00,,,0.00,weatherlink.com 1.10,2013-03-09 22:02:00,
2013-03-09 17:17:00,55.9,28.0,30.37,ESE,109,0.0,2.0,34,0.00,,,0.00,weatherlink.com 1.10,2013-03-09 22:17:00,
2013-03-09 17:32:00,55.3,28.0,30.37,ESE,109,0.0,2.0,35,0.00,,,0.00,weatherlink.com 1.10,2013-03-09 22:32:00,
2013-03-09 17:47:00,54.4,26.0,30.37,ESE,112,0.0,3.0,34,0.00,,,0.00,weatherlink.com 1.10,2013-03-09 22:47:00,
2013-03-09 18:02:00,53.7,25.0,30.37,ESE,102,1.0,3.0,33,0.00,,,0.00,weatherlink.com 1.10,2013-03-09 23:02:00,
2013-03-09 18:17:00,52.8,24.0,30.37,ESE,103,2.0,3.0,33,0.00,,,0.00,weatherlink.com 1.10,2013-03-09 23:17:00,
2013-03-09 18:32:00,52.2,24.0,30.37,East,88,1.0,5.0,34,0.00,,,0.00,weatherlink.com 1.10,2013-03-09 23:32:00,
2013-03-09 18:47:00,51.8,24.0,30.38,East,92,1.0,2.0,34,0.00,,,0.00,weatherlink.com 1.10,2013-03-09 23:47:00,
2013-03-09 19:02:00,51.5,24.0,30.38,ESE,121,1.0,3.0,34,0.00,,,0.00,weatherlink.com 1.10,2013-03-10 00:02:00,
2013-03-09 19:17:00,51.0,25.0,30.38,SE,128,0.0,3.0,36,0.00,,,0.00,weatherlink.com 1.10,2013-03-10 00:17:00,
2013-03-09 19:32:00,50.6,26.0,30.37,ESE,117,1.0,3.0,38,0.00,,,0.00,weatherlink.com 1.10,2013-03-10 00:32:00,
2013-03-09 19:47:00,50.3,25.0,30.38,ESE,117,0.0,2.0,38,0.00,,,0.00,weatherlink.com 1.10,2013-03-10 00:47:00,
2013-03-09 20:02:00,50.4,25.0,30.38,ESE,114,1.0,2.0,38,0.00,,,0.00,weatherlink.com 1.10,2013-03-10 01:02:00,
2013-03-09 20:17:00,50.3,26.0,30.38,ESE,120,0.0,2.0,39,0.00,,,0.00,weatherlink.com 1.10,2013-03-10 01:17:00,
2013-03-09 20:32:00,50.1,26.0,30.38,ESE,120,2.0,2.0,40,0.00,,,0.00,weatherlink.com 1.10,2013-03-10 01:32:00,
2013-03-09 20:47:00,49.9,26.0,30.39,South,190,0.0,2.0,40,0.00,,,0.00,weatherlink.com 1.10,2013-03-10 01:47:00,
2013-03-09 21:02:00,49.9,26.0,30.39,South,190,0.0,1.0,40,0.00,,,0.00,weatherlink.com 1.10,2013-03-10 02:02:00,
2013-03-09 21:17:00,49.9,26.0,30.40,South,190,0.0,1.0,40,0.00,,,0.00,weatherlink.com 1.10,2013-03-10 02:17:00,
2013-03-09 21:32:00,50.0,26.0,30.40,South,190,0.0,0.0,40,0.00,,,0.00,weatherlink.com 1.10,2013-03-10 02:32:00,
2013-03-09 21:47:00,50.1,27.0,30.40,SSW,192,0.0,0.0,41,0.00,,,0.00,weatherlink.com 1.10,2013-03-10 02:47:00,
2013-03-09 22:02:00,50.0,27.0,30.41,SSW,192,0.0,1.0,41,0.00,,,0.00,weatherlink.com 1.10,2013-03-10 03:02:00,
2013-03-09 22:17:00,49.6,28.0,30.41,SSW,192,0.0,0.0,43,0.00,,,0.00,weatherlink.com 1.10,2013-03-10 03:17:00,
2013-03-09 22:32:00,49.1,28.0,30.40,SSW,192,0.0,1.0,44,0.00,,,0.00,weatherlink.com 1.10,2013-03-10 03:32:00,
2013-03-09 22:47:00,48.8,28.0,30.41,SSW,192,0.0,1.0,45,0.00,,,0.00,weatherlink.com 1.10,2013-03-10 03:47:00,
2013-03-09 23:02:00,48.6,28.0,30.40,SSW,192,0.0,1.0,45,0.00,,,0.00,weatherlink.com 1.10,2013-03-10 04:02:00,
2013-03-09 23:17:00,48.2,28.0,30.40,SSW,192,1.0,2.0,46,0.00,,,0.00,weatherlink.com 1.10,2013-03-10 04:17:00,
2013-03-09 23:32:00,47.8,28.0,30.39,SSW,192,2.0,3.0,46,0.00,,,0.00,weatherlink.com 1.10,2013-03-10 04:32:00,
2013-03-09 23:47:00,47.7,28.0,30.39,SSW,192,0.0,2.0,46,0.00,,,0.00,weatherlink.com 1.10,2013-03-10 04:47:00,